sensor_id;sensor_type;location;lat;lon;timestamp;temperature;humidity
78904;DHT22;68291;49.602;8.722;2023-04-25T00:02:01;10.50;99.90
78904;DHT22;68291;49.602;8.722;2023-04-25T00:04:37;10.50;99.90
78904;DHT22;68291;49.602;8.722;2023-04-25T00:07:18;10.50;99.90
78904;DHT22;68291;49.602;8.722;2023-04-25T00:10:09;10.50;99.90
78904;DHT22;68291;49.602;8.722;2023-04-25T00:12:52;10.50;99.90
78904;DHT22;68291;49.602;8.722;2023-04-25T00:15:32;10.50;99.90
78904;DHT22;68291;49.602;8.722;2023-04-25T00:18:03;10.50;99.90
78904;DHT22;68291;49.602;8.722;2023-04-25T00:20:52;10.50;99.90
78904;DHT22;68291;49.602;8.722;2023-04-25T00:23:25;10.50;99.90
78904;DHT22;68291;49.602;8.722;2023-04-25T00:26:09;10.50;99.90
78904;DHT22;68291;49.602;8.722;2023-04-25T00:29:00;10.50;99.90
78904;DHT22;68291;49.602;8.722;2023-04-25T00:31:56;10.60;99.90
78904;DHT22;68291;49.602;8.722;2023-04-25T00:34:44;10.60;99.90
78904;DHT22;68291;49.602;8.722;2023-04-25T00:37:30;10.60;99.90
78904;DHT22;68291;49.602;8.722;2023-04-25T00:40:24;10.60;99.90
78904;DHT22;68291;49.602;8.722;2023-04-25T00:43:08;10.60;99.90
78904;DHT22;68291;49.602;8.722;2023-04-25T00:45:41;10.60;99.90
78904;DHT22;68291;49.602;8.722;2023-04-25T00:48:29;10.60;99.90
78904;DHT22;68291;49.602;8.722;2023-04-25T00:51:15;10.60;99.90
78904;DHT22;68291;49.602;8.722;2023-04-25T00:54:07;10.60;99.90
78904;DHT22;68291;49.602;8.722;2023-04-25T00:57:08;10.60;99.90
78904;DHT22;68291;49.602;8.722;2023-04-25T01:00:10;10.50;99.90
78904;DHT22;68291;49.602;8.722;2023-04-25T01:02:46;10.50;99.90
78904;DHT22;68291;49.602;8.722;2023-04-25T01:05:22;10.50;99.90
78904;DHT22;68291;49.602;8.722;2023-04-25T01:07:56;10.50;99.90
78904;DHT22;68291;49.602;8.722;2023-04-25T01:10:27;10.50;99.90
78904;DHT22;68291;49.602;8.722;2023-04-25T01:13:00;10.50;99.90
78904;DHT22;68291;49.602;8.722;2023-04-25T01:15:53;10.60;99.90
78904;DHT22;68291;49.602;8.722;2023-04-25T01:18:40;10.60;99.90
78904;DHT22;68291;49.602;8.722;2023-04-25T01:22:01;10.60;99.90
78904;DHT22;68291;49.602;8.722;2023-04-25T01:24:39;10.70;99.90
78904;DHT22;68291;49.602;8.722;2023-04-25T01:27:24;10.70;99.90
78904;DHT22;68291;49.602;8.722;2023-04-25T01:30:07;10.70;99.90
78904;DHT22;68291;49.602;8.722;2023-04-25T01:32:45;10.70;99.90
78904;DHT22;68291;49.602;8.722;2023-04-25T01:35:31;10.70;99.90
78904;DHT22;68291;49.602;8.722;2023-04-25T01:38:08;10.80;99.90
78904;DHT22;68291;49.602;8.722;2023-04-25T01:40:40;10.80;99.90
78904;DHT22;68291;49.602;8.722;2023-04-25T01:43:14;10.80;99.90
78904;DHT22;68291;49.602;8.722;2023-04-25T01:45:48;10.80;99.90
78904;DHT22;68291;49.602;8.722;2023-04-25T01:48:31;10.80;99.90
78904;DHT22;68291;49.602;8.722;2023-04-25T01:51:09;10.80;99.90
78904;DHT22;68291;49.602;8.722;2023-04-25T01:54:08;10.80;99.90
78904;DHT22;68291;49.602;8.722;2023-04-25T01:56:57;10.80;99.90
78904;DHT22;68291;49.602;8.722;2023-04-25T01:59:44;10.80;99.90
78904;DHT22;68291;49.602;8.722;2023-04-25T02:02:58;10.80;99.90
78904;DHT22;68291;49.602;8.722;2023-04-25T02:05:40;10.80;99.90
78904;DHT22;68291;49.602;8.722;2023-04-25T02:08:17;10.80;99.90
78904;DHT22;68291;49.602;8.722;2023-04-25T02:10:53;10.80;99.90
78904;DHT22;68291;49.602;8.722;2023-04-25T02:13:41;10.80;99.90
78904;DHT22;68291;49.602;8.722;2023-04-25T02:16:38;10.80;99.90
78904;DHT22;68291;49.602;8.722;2023-04-25T02:19:10;10.70;99.90
78904;DHT22;68291;49.602;8.722;2023-04-25T02:21:41;10.70;99.90
78904;DHT22;68291;49.602;8.722;2023-04-25T02:24:37;10.70;99.90
78904;DHT22;68291;49.602;8.722;2023-04-25T02:27:18;10.70;99.90
78904;DHT22;68291;49.602;8.722;2023-04-25T02:29:58;10.70;99.90
78904;DHT22;68291;49.602;8.722;2023-04-25T02:32:48;10.70;99.90
78904;DHT22;68291;49.602;8.722;2023-04-25T02:35:38;10.60;99.90
78904;DHT22;68291;49.602;8.722;2023-04-25T02:38:37;10.60;99.90
78904;DHT22;68291;49.602;8.722;2023-04-25T02:41:31;10.60;99.90
78904;DHT22;68291;49.602;8.722;2023-04-25T02:44:45;10.60;99.90
78904;DHT22;68291;49.602;8.722;2023-04-25T02:47:36;10.50;99.90
78904;DHT22;68291;49.602;8.722;2023-04-25T02:50:08;10.50;99.90
78904;DHT22;68291;49.602;8.722;2023-04-25T02:52:53;10.50;99.90
78904;DHT22;68291;49.602;8.722;2023-04-25T02:55:38;10.50;99.90
78904;DHT22;68291;49.602;8.722;2023-04-25T02:58:14;10.40;99.90
78904;DHT22;68291;49.602;8.722;2023-04-25T03:01:07;10.40;99.90
78904;DHT22;68291;49.602;8.722;2023-04-25T03:03:40;10.40;99.90
78904;DHT22;68291;49.602;8.722;2023-04-25T03:06:22;10.40;99.90
78904;DHT22;68291;49.602;8.722;2023-04-25T03:08:55;10.40;99.90
78904;DHT22;68291;49.602;8.722;2023-04-25T03:11:34;10.40;99.90
78904;DHT22;68291;49.602;8.722;2023-04-25T03:14:11;10.40;99.90
78904;DHT22;68291;49.602;8.722;2023-04-25T03:20:06;10.40;99.90
78904;DHT22;68291;49.602;8.722;2023-04-25T03:22:59;10.40;99.90
78904;DHT22;68291;49.602;8.722;2023-04-25T03:25:30;10.40;99.90
78904;DHT22;68291;49.602;8.722;2023-04-25T03:28:06;10.40;99.90
78904;DHT22;68291;49.602;8.722;2023-04-25T03:30:46;10.40;99.90
78904;DHT22;68291;49.602;8.722;2023-04-25T03:33:54;10.40;99.90
78904;DHT22;68291;49.602;8.722;2023-04-25T03:36:26;10.50;99.90
78904;DHT22;68291;49.602;8.722;2023-04-25T03:39:10;10.50;99.90
78904;DHT22;68291;49.602;8.722;2023-04-25T03:41:56;10.50;99.90
78904;DHT22;68291;49.602;8.722;2023-04-25T03:44:32;10.50;99.90
78904;DHT22;68291;49.602;8.722;2023-04-25T03:47:03;10.50;99.90
78904;DHT22;68291;49.602;8.722;2023-04-25T03:53:16;10.60;99.90
78904;DHT22;68291;49.602;8.722;2023-04-25T03:56:24;10.60;99.90
78904;DHT22;68291;49.602;8.722;2023-04-25T03:59:08;10.60;99.90
78904;DHT22;68291;49.602;8.722;2023-04-25T04:01:43;10.60;99.90
78904;DHT22;68291;49.602;8.722;2023-04-25T04:04:28;10.60;99.90
78904;DHT22;68291;49.602;8.722;2023-04-25T04:07:18;10.60;99.90
78904;DHT22;68291;49.602;8.722;2023-04-25T04:10:10;10.70;99.90
78904;DHT22;68291;49.602;8.722;2023-04-25T04:12:57;10.70;99.90
78904;DHT22;68291;49.602;8.722;2023-04-25T04:15:31;10.70;99.90
78904;DHT22;68291;49.602;8.722;2023-04-25T04:18:10;10.70;99.90
78904;DHT22;68291;49.602;8.722;2023-04-25T04:20:50;10.70;99.90
78904;DHT22;68291;49.602;8.722;2023-04-25T04:23:29;10.70;99.90
78904;DHT22;68291;49.602;8.722;2023-04-25T04:26:13;10.70;99.90
78904;DHT22;68291;49.602;8.722;2023-04-25T04:29:19;10.70;99.90
78904;DHT22;68291;49.602;8.722;2023-04-25T04:32:02;10.70;99.90
78904;DHT22;68291;49.602;8.722;2023-04-25T04:34:56;10.70;99.90
78904;DHT22;68291;49.602;8.722;2023-04-25T04:37:33;10.70;99.90
78904;DHT22;68291;49.602;8.722;2023-04-25T04:40:23;10.70;99.90
78904;DHT22;68291;49.602;8.722;2023-04-25T04:43:04;10.80;99.90
78904;DHT22;68291;49.602;8.722;2023-04-25T04:46:06;10.80;99.90
78904;DHT22;68291;49.602;8.722;2023-04-25T04:49:11;10.80;99.90
78904;DHT22;68291;49.602;8.722;2023-04-25T04:52:14;10.80;99.90
78904;DHT22;68291;49.602;8.722;2023-04-25T04:55:23;10.80;99.90
78904;DHT22;68291;49.602;8.722;2023-04-25T04:58:24;10.80;99.90
78904;DHT22;68291;49.602;8.722;2023-04-25T05:01:24;10.80;99.90
78904;DHT22;68291;49.602;8.722;2023-04-25T05:04:29;10.80;99.90
78904;DHT22;68291;49.602;8.722;2023-04-25T05:07:22;10.80;99.90
78904;DHT22;68291;49.602;8.722;2023-04-25T05:10:16;10.80;99.90
78904;DHT22;68291;49.602;8.722;2023-04-25T05:13:38;10.80;99.90
78904;DHT22;68291;49.602;8.722;2023-04-25T05:16:40;10.80;99.90
78904;DHT22;68291;49.602;8.722;2023-04-25T05:19:38;10.80;99.90
78904;DHT22;68291;49.602;8.722;2023-04-25T05:22:35;10.80;99.90
78904;DHT22;68291;49.602;8.722;2023-04-25T05:25:32;10.90;99.90
78904;DHT22;68291;49.602;8.722;2023-04-25T05:28:23;10.90;99.90
78904;DHT22;68291;49.602;8.722;2023-04-25T05:31:27;10.90;99.90
78904;DHT22;68291;49.602;8.722;2023-04-25T05:34:07;10.90;99.90
78904;DHT22;68291;49.602;8.722;2023-04-25T05:37:06;10.90;99.90
78904;DHT22;68291;49.602;8.722;2023-04-25T05:39:48;11.00;99.90
78904;DHT22;68291;49.602;8.722;2023-04-25T05:42:45;11.00;99.90
78904;DHT22;68291;49.602;8.722;2023-04-25T05:45:52;11.00;99.90
78904;DHT22;68291;49.602;8.722;2023-04-25T05:48:52;11.10;99.90
78904;DHT22;68291;49.602;8.722;2023-04-25T05:51:59;11.10;99.90
78904;DHT22;68291;49.602;8.722;2023-04-25T05:55:06;11.10;99.90
78904;DHT22;68291;49.602;8.722;2023-04-25T05:57:55;11.10;99.90
78904;DHT22;68291;49.602;8.722;2023-04-25T06:00:28;11.20;99.90
78904;DHT22;68291;49.602;8.722;2023-04-25T06:03:20;11.20;99.90
78904;DHT22;68291;49.602;8.722;2023-04-25T06:05:53;11.20;99.90
78904;DHT22;68291;49.602;8.722;2023-04-25T06:08:34;11.20;99.90
78904;DHT22;68291;49.602;8.722;2023-04-25T06:11:19;11.30;99.90
78904;DHT22;68291;49.602;8.722;2023-04-25T06:14:15;11.30;99.90
78904;DHT22;68291;49.602;8.722;2023-04-25T06:16:53;11.40;99.90
78904;DHT22;68291;49.602;8.722;2023-04-25T06:19:24;11.50;99.90
78904;DHT22;68291;49.602;8.722;2023-04-25T06:22:08;11.50;99.90
78904;DHT22;68291;49.602;8.722;2023-04-25T06:25:02;11.50;99.90
78904;DHT22;68291;49.602;8.722;2023-04-25T06:27:58;11.60;99.90
78904;DHT22;68291;49.602;8.722;2023-04-25T06:30:52;11.60;99.90
78904;DHT22;68291;49.602;8.722;2023-04-25T06:33:24;11.50;99.90
78904;DHT22;68291;49.602;8.722;2023-04-25T06:36:20;11.50;99.90
78904;DHT22;68291;49.602;8.722;2023-04-25T06:38:59;11.50;99.90
78904;DHT22;68291;49.602;8.722;2023-04-25T06:41:38;11.50;99.90
78904;DHT22;68291;49.602;8.722;2023-04-25T06:44:29;11.50;99.90
78904;DHT22;68291;49.602;8.722;2023-04-25T06:47:01;11.50;99.90
78904;DHT22;68291;49.602;8.722;2023-04-25T06:49:33;11.40;99.90
78904;DHT22;68291;49.602;8.722;2023-04-25T06:52:18;11.50;99.90
78904;DHT22;68291;49.602;8.722;2023-04-25T06:55:00;11.50;99.90
78904;DHT22;68291;49.602;8.722;2023-04-25T06:57:55;11.50;99.90
78904;DHT22;68291;49.602;8.722;2023-04-25T07:00:58;11.60;99.90
78904;DHT22;68291;49.602;8.722;2023-04-25T07:03:33;11.70;99.90
78904;DHT22;68291;49.602;8.722;2023-04-25T07:06:19;11.70;99.90
78904;DHT22;68291;49.602;8.722;2023-04-25T07:09:10;11.70;99.90
78904;DHT22;68291;49.602;8.722;2023-04-25T07:12:19;11.80;99.90
78904;DHT22;68291;49.602;8.722;2023-04-25T07:15:11;11.90;99.90
78904;DHT22;68291;49.602;8.722;2023-04-25T07:18:02;12.00;99.90
78904;DHT22;68291;49.602;8.722;2023-04-25T07:21:06;12.00;99.90
78904;DHT22;68291;49.602;8.722;2023-04-25T07:23:56;12.10;99.90
78904;DHT22;68291;49.602;8.722;2023-04-25T07:26:34;12.20;99.90
78904;DHT22;68291;49.602;8.722;2023-04-25T07:29:32;12.20;99.90
78904;DHT22;68291;49.602;8.722;2023-04-25T07:32:06;12.20;99.90
78904;DHT22;68291;49.602;8.722;2023-04-25T07:34:51;12.30;99.90
78904;DHT22;68291;49.602;8.722;2023-04-25T07:37:29;12.30;99.90
78904;DHT22;68291;49.602;8.722;2023-04-25T07:40:29;12.30;99.90
78904;DHT22;68291;49.602;8.722;2023-04-25T07:43:23;12.30;99.90
78904;DHT22;68291;49.602;8.722;2023-04-25T07:46:47;12.30;99.90
78904;DHT22;68291;49.602;8.722;2023-04-25T07:49:26;12.30;99.90
78904;DHT22;68291;49.602;8.722;2023-04-25T07:51:56;12.30;99.90
78904;DHT22;68291;49.602;8.722;2023-04-25T07:54:42;12.30;99.90
78904;DHT22;68291;49.602;8.722;2023-04-25T07:57:28;12.30;99.90
78904;DHT22;68291;49.602;8.722;2023-04-25T08:00:08;12.30;99.90
78904;DHT22;68291;49.602;8.722;2023-04-25T08:03:07;12.30;99.90
78904;DHT22;68291;49.602;8.722;2023-04-25T08:06:10;12.30;99.90
78904;DHT22;68291;49.602;8.722;2023-04-25T08:09:05;12.30;99.90
78904;DHT22;68291;49.602;8.722;2023-04-25T08:11:45;12.20;99.90
78904;DHT22;68291;49.602;8.722;2023-04-25T08:14:36;12.20;99.90
78904;DHT22;68291;49.602;8.722;2023-04-25T08:17:11;12.20;99.90
78904;DHT22;68291;49.602;8.722;2023-04-25T08:19:52;12.20;99.90
78904;DHT22;68291;49.602;8.722;2023-04-25T08:22:30;12.20;99.90
78904;DHT22;68291;49.602;8.722;2023-04-25T08:25:23;12.20;99.90
78904;DHT22;68291;49.602;8.722;2023-04-25T08:27:58;12.20;99.90
78904;DHT22;68291;49.602;8.722;2023-04-25T08:30:32;12.30;99.90
78904;DHT22;68291;49.602;8.722;2023-04-25T08:33:06;12.30;99.90
78904;DHT22;68291;49.602;8.722;2023-04-25T08:36:17;12.30;99.90
78904;DHT22;68291;49.602;8.722;2023-04-25T08:39:27;12.40;99.90
78904;DHT22;68291;49.602;8.722;2023-04-25T08:42:22;12.40;99.90
78904;DHT22;68291;49.602;8.722;2023-04-25T08:44:59;12.50;99.90
78904;DHT22;68291;49.602;8.722;2023-04-25T08:47:41;12.60;99.90
78904;DHT22;68291;49.602;8.722;2023-04-25T08:50:37;12.60;99.90
78904;DHT22;68291;49.602;8.722;2023-04-25T08:53:16;12.70;99.90
78904;DHT22;68291;49.602;8.722;2023-04-25T08:55:54;12.80;99.90
78904;DHT22;68291;49.602;8.722;2023-04-25T08:58:37;12.80;99.90
78904;DHT22;68291;49.602;8.722;2023-04-25T09:01:32;12.80;99.90
78904;DHT22;68291;49.602;8.722;2023-04-25T09:04:31;12.70;99.90
78904;DHT22;68291;49.602;8.722;2023-04-25T09:07:04;12.70;99.90
78904;DHT22;68291;49.602;8.722;2023-04-25T09:09:59;12.80;99.90
78904;DHT22;68291;49.602;8.722;2023-04-25T09:12:42;12.90;99.90
78904;DHT22;68291;49.602;8.722;2023-04-25T09:15:33;12.90;99.90
78904;DHT22;68291;49.602;8.722;2023-04-25T09:19:22;13.00;99.90
78904;DHT22;68291;49.602;8.722;2023-04-25T09:22:23;13.00;99.90
78904;DHT22;68291;49.602;8.722;2023-04-25T09:25:11;13.10;99.90
78904;DHT22;68291;49.602;8.722;2023-04-25T09:27:50;13.10;99.90
78904;DHT22;68291;49.602;8.722;2023-04-25T09:30:41;13.10;99.90
78904;DHT22;68291;49.602;8.722;2023-04-25T09:33:38;13.20;99.90
78904;DHT22;68291;49.602;8.722;2023-04-25T09:36:27;13.10;99.90
78904;DHT22;68291;49.602;8.722;2023-04-25T09:39:13;13.10;99.90
78904;DHT22;68291;49.602;8.722;2023-04-25T09:42:21;13.10;99.90
78904;DHT22;68291;49.602;8.722;2023-04-25T09:45:17;13.10;99.90
78904;DHT22;68291;49.602;8.722;2023-04-25T09:48:03;13.20;99.90
78904;DHT22;68291;49.602;8.722;2023-04-25T09:50:43;13.20;99.90
78904;DHT22;68291;49.602;8.722;2023-04-25T09:53:28;13.30;99.90
78904;DHT22;68291;49.602;8.722;2023-04-25T09:56:14;13.40;99.90
78904;DHT22;68291;49.602;8.722;2023-04-25T09:59:13;13.50;99.90
78904;DHT22;68291;49.602;8.722;2023-04-25T10:01:49;13.50;99.90
78904;DHT22;68291;49.602;8.722;2023-04-25T10:04:35;13.50;99.90
78904;DHT22;68291;49.602;8.722;2023-04-25T10:07:31;13.60;99.90
78904;DHT22;68291;49.602;8.722;2023-04-25T10:10:30;13.60;99.90
78904;DHT22;68291;49.602;8.722;2023-04-25T10:13:09;13.60;99.90
78904;DHT22;68291;49.602;8.722;2023-04-25T10:15:55;13.70;99.90
78904;DHT22;68291;49.602;8.722;2023-04-25T10:18:33;13.80;99.90
78904;DHT22;68291;49.602;8.722;2023-04-25T10:21:13;14.00;99.90
78904;DHT22;68291;49.602;8.722;2023-04-25T10:24:04;14.10;99.90
78904;DHT22;68291;49.602;8.722;2023-04-25T10:26:42;14.10;99.90
78904;DHT22;68291;49.602;8.722;2023-04-25T10:29:25;14.10;99.90
78904;DHT22;68291;49.602;8.722;2023-04-25T10:32:08;14.10;99.90
78904;DHT22;68291;49.602;8.722;2023-04-25T10:34:47;14.10;99.90
78904;DHT22;68291;49.602;8.722;2023-04-25T10:37:57;14.10;99.90
78904;DHT22;68291;49.602;8.722;2023-04-25T10:40:35;14.10;99.90
78904;DHT22;68291;49.602;8.722;2023-04-25T10:43:38;14.10;99.90
78904;DHT22;68291;49.602;8.722;2023-04-25T10:46:19;14.10;99.90
78904;DHT22;68291;49.602;8.722;2023-04-25T10:49:29;14.20;99.90
78904;DHT22;68291;49.602;8.722;2023-04-25T10:52:17;14.20;99.90
78904;DHT22;68291;49.602;8.722;2023-04-25T10:55:08;14.20;99.90
78904;DHT22;68291;49.602;8.722;2023-04-25T10:58:08;14.20;99.90
78904;DHT22;68291;49.602;8.722;2023-04-25T11:01:04;14.10;99.90
78904;DHT22;68291;49.602;8.722;2023-04-25T11:03:59;14.10;99.90
78904;DHT22;68291;49.602;8.722;2023-04-25T11:07:10;14.00;99.90
78904;DHT22;68291;49.602;8.722;2023-04-25T11:10:10;14.00;99.90
78904;DHT22;68291;49.602;8.722;2023-04-25T11:12:52;14.00;99.90
78904;DHT22;68291;49.602;8.722;2023-04-25T11:15:22;14.10;99.90
78904;DHT22;68291;49.602;8.722;2023-04-25T11:17:54;14.10;99.90
78904;DHT22;68291;49.602;8.722;2023-04-25T11:20:44;14.10;99.90
78904;DHT22;68291;49.602;8.722;2023-04-25T11:23:31;14.00;99.90
78904;DHT22;68291;49.602;8.722;2023-04-25T11:26:13;14.00;99.90
78904;DHT22;68291;49.602;8.722;2023-04-25T11:28:59;13.90;99.90
78904;DHT22;68291;49.602;8.722;2023-04-25T11:31:37;13.70;99.90
78904;DHT22;68291;49.602;8.722;2023-04-25T11:34:11;13.60;99.90
78904;DHT22;68291;49.602;8.722;2023-04-25T11:36:54;13.50;99.90
78904;DHT22;68291;49.602;8.722;2023-04-25T11:39:46;13.50;99.90
78904;DHT22;68291;49.602;8.722;2023-04-25T11:42:39;13.40;99.90
78904;DHT22;68291;49.602;8.722;2023-04-25T11:45:38;13.50;99.90
78904;DHT22;68291;49.602;8.722;2023-04-25T11:48:19;13.60;99.90
78904;DHT22;68291;49.602;8.722;2023-04-25T11:50:54;13.70;99.90
78904;DHT22;68291;49.602;8.722;2023-04-25T11:53:47;13.80;99.90
78904;DHT22;68291;49.602;8.722;2023-04-25T11:56:58;14.00;99.90
78904;DHT22;68291;49.602;8.722;2023-04-25T11:59:35;14.20;99.90
78904;DHT22;68291;49.602;8.722;2023-04-25T12:02:07;14.40;99.90
78904;DHT22;68291;49.602;8.722;2023-04-25T12:05:00;14.60;99.90
78904;DHT22;68291;49.602;8.722;2023-04-25T12:07:54;14.70;99.90
78904;DHT22;68291;49.602;8.722;2023-04-25T12:10:39;14.90;99.90
78904;DHT22;68291;49.602;8.722;2023-04-25T12:13:29;15.00;99.90
78904;DHT22;68291;49.602;8.722;2023-04-25T12:16:06;15.10;99.90
78904;DHT22;68291;49.602;8.722;2023-04-25T12:18:46;15.00;99.90
78904;DHT22;68291;49.602;8.722;2023-04-25T12:21:30;15.00;99.90
78904;DHT22;68291;49.602;8.722;2023-04-25T12:24:27;15.00;99.90
78904;DHT22;68291;49.602;8.722;2023-04-25T12:27:16;15.00;99.90
78904;DHT22;68291;49.602;8.722;2023-04-25T12:30:33;15.10;99.90
78904;DHT22;68291;49.602;8.722;2023-04-25T12:33:27;15.30;99.90
78904;DHT22;68291;49.602;8.722;2023-04-25T12:36:04;15.50;99.90
78904;DHT22;68291;49.602;8.722;2023-04-25T12:38:44;15.60;99.90
78904;DHT22;68291;49.602;8.722;2023-04-25T12:41:28;15.70;99.90
78904;DHT22;68291;49.602;8.722;2023-04-25T12:44:08;15.70;99.90
78904;DHT22;68291;49.602;8.722;2023-04-25T12:47:18;15.80;99.90
78904;DHT22;68291;49.602;8.722;2023-04-25T12:50:07;15.80;99.90
78904;DHT22;68291;49.602;8.722;2023-04-25T12:52:53;15.90;99.90
78904;DHT22;68291;49.602;8.722;2023-04-25T12:55:26;15.90;99.90
78904;DHT22;68291;49.602;8.722;2023-04-25T12:58:15;15.90;99.90
78904;DHT22;68291;49.602;8.722;2023-04-25T13:01:11;15.90;99.90
78904;DHT22;68291;49.602;8.722;2023-04-25T13:06:50;15.90;99.90
78904;DHT22;68291;49.602;8.722;2023-04-25T13:09:28;15.90;99.90
78904;DHT22;68291;49.602;8.722;2023-04-25T13:12:05;15.90;99.90
78904;DHT22;68291;49.602;8.722;2023-04-25T13:14:46;16.10;99.90
78904;DHT22;68291;49.602;8.722;2023-04-25T13:17:32;16.30;99.90
78904;DHT22;68291;49.602;8.722;2023-04-25T13:20:14;16.50;99.90
78904;DHT22;68291;49.602;8.722;2023-04-25T13:23:02;16.60;99.90
78904;DHT22;68291;49.602;8.722;2023-04-25T13:25:52;16.60;99.90
78904;DHT22;68291;49.602;8.722;2023-04-25T13:28:38;16.50;99.90
78904;DHT22;68291;49.602;8.722;2023-04-25T13:31:13;16.40;99.90
78904;DHT22;68291;49.602;8.722;2023-04-25T13:33:59;16.30;99.90
78904;DHT22;68291;49.602;8.722;2023-04-25T13:36:59;16.30;99.90
78904;DHT22;68291;49.602;8.722;2023-04-25T13:39:51;16.20;99.90
78904;DHT22;68291;49.602;8.722;2023-04-25T13:42:23;16.10;99.90
78904;DHT22;68291;49.602;8.722;2023-04-25T13:45:06;16.20;99.90
78904;DHT22;68291;49.602;8.722;2023-04-25T13:47:53;16.60;99.90
78904;DHT22;68291;49.602;8.722;2023-04-25T13:50:38;16.90;99.90
78904;DHT22;68291;49.602;8.722;2023-04-25T13:53:17;17.00;99.90
78904;DHT22;68291;49.602;8.722;2023-04-25T13:55:53;17.00;99.90
78904;DHT22;68291;49.602;8.722;2023-04-25T13:58:39;16.90;99.90
78904;DHT22;68291;49.602;8.722;2023-04-25T14:01:13;16.60;99.90
78904;DHT22;68291;49.602;8.722;2023-04-25T14:03:44;16.50;99.90
78904;DHT22;68291;49.602;8.722;2023-04-25T14:06:16;16.30;99.90
78904;DHT22;68291;49.602;8.722;2023-04-25T14:08:58;16.10;99.90
78904;DHT22;68291;49.602;8.722;2023-04-25T14:11:46;15.90;99.90
78904;DHT22;68291;49.602;8.722;2023-04-25T14:14:22;15.80;99.90
78904;DHT22;68291;49.602;8.722;2023-04-25T14:17:08;15.70;99.90
78904;DHT22;68291;49.602;8.722;2023-04-25T14:19:51;15.60;99.90
78904;DHT22;68291;49.602;8.722;2023-04-25T14:22:34;15.50;99.90
78904;DHT22;68291;49.602;8.722;2023-04-25T14:25:25;15.30;99.90
78904;DHT22;68291;49.602;8.722;2023-04-25T14:28:00;15.30;99.90
78904;DHT22;68291;49.602;8.722;2023-04-25T14:30:45;15.20;99.90
78904;DHT22;68291;49.602;8.722;2023-04-25T14:33:29;15.10;99.90
78904;DHT22;68291;49.602;8.722;2023-04-25T14:36:14;15.10;99.90
78904;DHT22;68291;49.602;8.722;2023-04-25T14:38:56;15.00;99.90
78904;DHT22;68291;49.602;8.722;2023-04-25T14:41:48;15.00;99.90
78904;DHT22;68291;49.602;8.722;2023-04-25T14:44:32;14.90;99.90
78904;DHT22;68291;49.602;8.722;2023-04-25T14:47:10;14.90;99.90
78904;DHT22;68291;49.602;8.722;2023-04-25T14:49:42;14.90;99.90
78904;DHT22;68291;49.602;8.722;2023-04-25T14:52:25;14.90;99.90
78904;DHT22;68291;49.602;8.722;2023-04-25T14:55:38;14.90;99.90
78904;DHT22;68291;49.602;8.722;2023-04-25T14:58:15;14.90;99.90
78904;DHT22;68291;49.602;8.722;2023-04-25T15:00:55;15.00;99.90
78904;DHT22;68291;49.602;8.722;2023-04-25T15:03:49;15.00;99.90
78904;DHT22;68291;49.602;8.722;2023-04-25T15:06:25;15.10;99.90
78904;DHT22;68291;49.602;8.722;2023-04-25T15:09:06;15.00;99.90
78904;DHT22;68291;49.602;8.722;2023-04-25T15:11:47;15.00;99.90
78904;DHT22;68291;49.602;8.722;2023-04-25T15:14:25;14.90;99.90
78904;DHT22;68291;49.602;8.722;2023-04-25T15:17:12;14.80;99.90
78904;DHT22;68291;49.602;8.722;2023-04-25T15:19:44;14.70;99.90
78904;DHT22;68291;49.602;8.722;2023-04-25T15:22:29;14.60;99.90
78904;DHT22;68291;49.602;8.722;2023-04-25T15:25:22;14.50;99.90
78904;DHT22;68291;49.602;8.722;2023-04-25T15:28:01;14.60;99.90
78904;DHT22;68291;49.602;8.722;2023-04-25T15:30:48;14.60;99.90
78904;DHT22;68291;49.602;8.722;2023-04-25T15:33:26;14.60;99.90
78904;DHT22;68291;49.602;8.722;2023-04-25T15:36:23;14.70;99.90
78904;DHT22;68291;49.602;8.722;2023-04-25T15:39:03;14.80;99.90
78904;DHT22;68291;49.602;8.722;2023-04-25T15:41:59;14.90;99.90
78904;DHT22;68291;49.602;8.722;2023-04-25T15:44:59;14.90;99.90
78904;DHT22;68291;49.602;8.722;2023-04-25T15:47:56;14.90;99.90
78904;DHT22;68291;49.602;8.722;2023-04-25T15:50:37;14.90;99.90
78904;DHT22;68291;49.602;8.722;2023-04-25T15:53:07;15.00;99.90
78904;DHT22;68291;49.602;8.722;2023-04-25T15:56:01;15.00;99.90
78904;DHT22;68291;49.602;8.722;2023-04-25T15:58:33;15.00;99.90
78904;DHT22;68291;49.602;8.722;2023-04-25T16:01:26;14.90;99.90
78904;DHT22;68291;49.602;8.722;2023-04-25T16:04:03;14.90;99.90
78904;DHT22;68291;49.602;8.722;2023-04-25T16:06:44;14.80;99.90
78904;DHT22;68291;49.602;8.722;2023-04-25T16:09:31;14.70;99.90
78904;DHT22;68291;49.602;8.722;2023-04-25T16:12:11;14.70;99.90
78904;DHT22;68291;49.602;8.722;2023-04-25T16:14:54;14.70;99.90
78904;DHT22;68291;49.602;8.722;2023-04-25T16:17:44;14.70;99.90
78904;DHT22;68291;49.602;8.722;2023-04-25T16:20:37;14.70;99.90
78904;DHT22;68291;49.602;8.722;2023-04-25T16:23:23;14.70;99.90
78904;DHT22;68291;49.602;8.722;2023-04-25T16:26:07;14.60;99.90
78904;DHT22;68291;49.602;8.722;2023-04-25T16:28:55;14.60;99.90
78904;DHT22;68291;49.602;8.722;2023-04-25T16:31:51;14.70;99.90
78904;DHT22;68291;49.602;8.722;2023-04-25T16:34:34;14.70;99.90
78904;DHT22;68291;49.602;8.722;2023-04-25T16:37:28;14.80;99.90
78904;DHT22;68291;49.602;8.722;2023-04-25T16:40:08;14.80;99.90
78904;DHT22;68291;49.602;8.722;2023-04-25T16:42:58;14.70;99.90
78904;DHT22;68291;49.602;8.722;2023-04-25T16:45:40;14.60;99.90
78904;DHT22;68291;49.602;8.722;2023-04-25T16:48:31;14.50;99.90
78904;DHT22;68291;49.602;8.722;2023-04-25T16:51:11;14.40;99.90
78904;DHT22;68291;49.602;8.722;2023-04-25T16:54:02;14.30;99.90
78904;DHT22;68291;49.602;8.722;2023-04-25T16:56:49;14.20;99.90
78904;DHT22;68291;49.602;8.722;2023-04-25T16:59:29;14.10;99.90
78904;DHT22;68291;49.602;8.722;2023-04-25T17:02:04;14.00;99.90
78904;DHT22;68291;49.602;8.722;2023-04-25T17:04:44;13.90;99.90
78904;DHT22;68291;49.602;8.722;2023-04-25T17:07:24;13.90;99.90
78904;DHT22;68291;49.602;8.722;2023-04-25T17:13:13;13.70;99.90
78904;DHT22;68291;49.602;8.722;2023-04-25T17:16:02;13.70;99.90
78904;DHT22;68291;49.602;8.722;2023-04-25T17:18:53;13.70;99.90
78904;DHT22;68291;49.602;8.722;2023-04-25T17:21:33;13.60;99.90
78904;DHT22;68291;49.602;8.722;2023-04-25T17:24:13;13.60;99.90
78904;DHT22;68291;49.602;8.722;2023-04-25T17:27:04;13.50;99.90
78904;DHT22;68291;49.602;8.722;2023-04-25T17:29:37;13.50;99.90
78904;DHT22;68291;49.602;8.722;2023-04-25T17:32:10;13.40;99.90
78904;DHT22;68291;49.602;8.722;2023-04-25T17:34:55;13.40;99.90
78904;DHT22;68291;49.602;8.722;2023-04-25T17:37:46;13.40;99.90
78904;DHT22;68291;49.602;8.722;2023-04-25T17:40:19;13.40;99.90
78904;DHT22;68291;49.602;8.722;2023-04-25T17:43:35;13.30;99.90
78904;DHT22;68291;49.602;8.722;2023-04-25T17:46:07;13.30;99.90